Weather at Leesburg Executive Airport

Public forecast

Using degrees Fahrenheit for public forecast. Weather courtesy of forecast.io.

Current aviation weather report (METAR) for Leesburg Executive Airport

Retrieved 2021/05/12 16:35 UTC (18 minutes ago):

KJYO 121635Z AUTO 34012G15KT 10SM CLR 14/05 A3029 RMK AO2

Closest aviation forecast (TAF) to Leesburg Executive Airport

Closest forecast is Washington Dulles International Airport, 9.3 nm (17.3 km) SSE. Retrieved 2021/05/12 12:42 UTC (4 hours ago):

TAF KIAD 121140Z 1212/1318 VRB03KT P6SM BKN150 FM121400 34010KT P6SM SCT150 FM122300 35005KT P6SM FEW060 FM131500 34007KT P6SM FEW250